createdAt,value
2018-08-16T00:00:31.449Z,21.78
2018-08-16T00:03:00.125Z,21.71
2018-08-16T00:05:28.628Z,21.66
2018-08-16T00:07:57.435Z,21.64
2018-08-16T00:10:26.040Z,21.59
2018-08-16T00:12:54.759Z,21.57
2018-08-16T00:15:23.585Z,21.58
2018-08-16T00:17:52.063Z,21.53
2018-08-16T00:20:20.493Z,21.38
2018-08-16T00:22:48.923Z,21.30
2018-08-16T00:25:17.917Z,21.23
2018-08-16T00:27:46.577Z,21.16
2018-08-16T00:30:20.661Z,21.12
2018-08-16T00:32:49.225Z,21.06
2018-08-16T00:35:17.741Z,21.00
2018-08-16T00:37:46.199Z,21.00
2018-08-16T00:40:28.297Z,20.98
2018-08-16T00:42:56.733Z,20.99
2018-08-16T00:45:25.177Z,21.04
2018-08-16T00:47:53.941Z,21.08
2018-08-16T00:50:22.756Z,21.07
2018-08-16T00:52:52.462Z,21.09
2018-08-16T00:55:21.169Z,21.06
2018-08-16T00:57:49.889Z,21.04
2018-08-16T01:00:18.707Z,21.03
2018-08-16T01:02:47.523Z,20.96
2018-08-16T01:05:16.298Z,20.98
2018-08-16T01:07:47.937Z,21.04
2018-08-16T01:10:16.879Z,21.06
2018-08-16T01:12:46.318Z,21.05
2018-08-16T01:15:17.294Z,21.07
2018-08-16T01:17:46.131Z,20.98
2018-08-16T01:20:15.049Z,20.90
2018-08-16T01:22:43.795Z,20.81
2018-08-16T01:25:13.089Z,20.82
2018-08-16T01:27:41.767Z,20.86
2018-08-16T01:30:11.247Z,20.79
2018-08-16T01:32:40.002Z,20.79
2018-08-16T01:35:10.372Z,20.84
2018-08-16T01:37:39.296Z,20.73
2018-08-16T01:40:08.686Z,20.78
2018-08-16T01:42:40.885Z,20.72
2018-08-16T01:45:10.433Z,20.68
2018-08-16T01:47:39.645Z,20.53
2018-08-16T01:50:08.539Z,20.55
2018-08-16T01:52:37.348Z,20.58
2018-08-16T01:55:06.987Z,20.58
2018-08-16T01:57:35.603Z,20.58
2018-08-16T02:00:06.558Z,20.49
2018-08-16T02:02:35.306Z,20.60
2018-08-16T02:05:04.997Z,20.56
2018-08-16T02:07:34.228Z,20.63
2018-08-16T02:10:02.983Z,20.67
2018-08-16T02:12:31.659Z,20.67
2018-08-16T02:17:42.521Z,20.62
2018-08-16T02:20:14.351Z,20.56
2018-08-16T02:22:58.119Z,20.46
2018-08-16T02:25:28.001Z,20.43
2018-08-16T02:27:56.799Z,20.50
2018-08-16T02:30:25.607Z,20.51
2018-08-16T02:32:55.155Z,20.47
2018-08-16T02:35:23.989Z,20.46
2018-08-16T02:37:52.797Z,20.48
2018-08-16T02:40:21.537Z,20.50
2018-08-16T02:43:04.919Z,20.52
2018-08-16T02:45:33.727Z,20.52
2018-08-16T02:48:02.528Z,20.44
2018-08-16T02:50:31.359Z,20.36
2018-08-16T02:53:00.065Z,20.31
2018-08-16T02:55:28.807Z,20.26
2018-08-16T02:57:57.563Z,20.21
2018-08-16T03:00:26.419Z,20.22
2018-08-16T03:02:55.144Z,20.18
2018-08-16T03:05:24.969Z,20.14
2018-08-16T03:07:53.681Z,20.15
2018-08-16T03:10:22.434Z,20.12
2018-08-16T03:12:52.043Z,20.10
2018-08-16T03:15:21.005Z,20.05
2018-08-16T03:17:51.154Z,20.03
2018-08-16T03:23:05.494Z,20.02
2018-08-16T03:25:34.282Z,20.00
2018-08-16T03:28:03.202Z,19.96
2018-08-16T03:30:32.883Z,20.03
2018-08-16T03:33:01.746Z,20.05
2018-08-16T03:35:30.627Z,20.04
2018-08-16T03:37:59.365Z,20.00
2018-08-16T03:40:28.130Z,19.93
2018-08-16T03:42:56.850Z,19.89
2018-08-16T03:45:25.522Z,19.87
2018-08-16T03:47:56.024Z,19.82
2018-08-16T03:50:25.025Z,19.85
2018-08-16T03:52:53.862Z,19.84
2018-08-16T03:55:23.301Z,19.83
2018-08-16T03:57:52.077Z,19.84
2018-08-16T04:00:21.551Z,19.64
2018-08-16T04:02:50.401Z,19.55
2018-08-16T04:05:19.421Z,19.48
2018-08-16T04:07:48.222Z,19.42
2018-08-16T04:10:16.958Z,19.36
2018-08-16T04:12:45.781Z,19.35
2018-08-16T04:15:14.469Z,19.23
2018-08-16T04:17:44.440Z,19.18
2018-08-16T04:20:13.186Z,19.07
2018-08-16T04:22:42.005Z,18.90
2018-08-16T04:25:10.800Z,18.90
2018-08-16T04:27:39.484Z,18.90
2018-08-16T04:30:08.265Z,18.86
2018-08-16T04:32:37.116Z,18.83
2018-08-16T04:35:06.019Z,18.85
2018-08-16T04:37:34.674Z,18.93
2018-08-16T04:40:03.687Z,19.03
2018-08-16T04:42:32.538Z,19.20
2018-08-16T04:45:02.156Z,19.34
2018-08-16T04:47:30.810Z,19.35
2018-08-16T04:49:59.642Z,19.27
2018-08-16T04:52:28.348Z,19.19
2018-08-16T04:54:58.503Z,19.15
2018-08-16T04:57:27.360Z,19.09
2018-08-16T04:59:57.458Z,19.13
2018-08-16T05:02:26.278Z,19.24
2018-08-16T05:04:55.716Z,19.34
2018-08-16T05:07:25.540Z,19.42
2018-08-16T05:09:54.350Z,19.30
2018-08-16T05:12:23.202Z,19.33
2018-08-16T05:17:31.002Z,19.40
2018-08-16T05:19:59.465Z,19.46
2018-08-16T05:22:28.097Z,19.44
2018-08-16T05:24:56.673Z,19.45
2018-08-16T05:27:25.196Z,19.43
2018-08-16T05:29:53.764Z,19.48
2018-08-16T05:32:22.368Z,19.48
2018-08-16T05:34:50.924Z,19.45
2018-08-16T05:37:19.490Z,19.47
2018-08-16T05:39:48.050Z,19.40
2018-08-16T05:42:16.474Z,19.27
2018-08-16T05:44:45.139Z,19.26
2018-08-16T05:47:13.614Z,19.28
2018-08-16T05:49:42.288Z,19.23
2018-08-16T05:52:11.009Z,19.29
2018-08-16T05:54:39.462Z,19.34
2018-08-16T05:57:08.081Z,19.32
2018-08-16T05:59:36.953Z,19.33
2018-08-16T06:02:05.569Z,19.32
2018-08-16T06:04:34.156Z,19.33
2018-08-16T06:07:03.517Z,19.40
2018-08-16T06:09:32.100Z,19.47
2018-08-16T06:12:00.954Z,19.57
2018-08-16T06:14:29.844Z,19.58
2018-08-16T06:16:58.611Z,19.67
2018-08-16T06:19:27.258Z,19.73
2018-08-16T06:21:56.169Z,19.69
2018-08-16T06:24:29.210Z,19.65
2018-08-16T06:26:59.391Z,19.70
2018-08-16T06:29:28.030Z,19.72
2018-08-16T06:32:06.037Z,19.76
2018-08-16T06:34:34.750Z,19.81
2018-08-16T06:37:03.393Z,19.87
2018-08-16T06:39:32.970Z,19.93
2018-08-16T06:42:06.914Z,20.02
2018-08-16T06:44:35.469Z,20.03
2018-08-16T06:47:04.118Z,20.01
2018-08-16T06:49:33.015Z,20.04
2018-08-16T06:52:01.973Z,20.11
2018-08-16T06:54:30.544Z,20.20
2018-08-16T06:56:59.273Z,20.32
2018-08-16T06:59:27.857Z,20.37
2018-08-16T07:01:56.469Z,20.43
2018-08-16T07:04:24.941Z,20.47
2018-08-16T07:06:53.423Z,20.52
2018-08-16T07:09:22.203Z,20.57
2018-08-16T07:11:51.251Z,20.64
2018-08-16T07:14:19.805Z,20.63
2018-08-16T07:16:48.675Z,20.68
2018-08-16T07:19:17.401Z,20.75
2018-08-16T07:21:45.955Z,20.80
2018-08-16T07:24:14.441Z,20.85
2018-08-16T07:26:42.954Z,20.88
2018-08-16T07:29:11.500Z,20.91
2018-08-16T07:31:40.118Z,20.98
2018-08-16T07:34:08.771Z,21.03
2018-08-16T07:36:37.395Z,21.13
2018-08-16T07:39:08.987Z,21.21
2018-08-16T07:41:37.879Z,21.30
2018-08-16T07:44:06.681Z,21.36
2018-08-16T07:46:35.313Z,21.44
2018-08-16T07:49:03.891Z,21.53
2018-08-16T07:51:37.790Z,21.55
2018-08-16T07:54:06.419Z,21.61
2018-08-16T07:56:35.034Z,21.72
2018-08-16T07:59:04.129Z,21.79
2018-08-16T08:01:32.691Z,21.80
2018-08-16T08:04:01.402Z,21.90
2018-08-16T08:06:29.968Z,22.04
2018-08-16T08:08:58.702Z,22.16
2018-08-16T08:11:27.255Z,22.23
2018-08-16T08:13:56.088Z,22.22
2018-08-16T08:16:24.738Z,22.28
2018-08-16T08:18:53.497Z,22.33
2018-08-16T08:21:27.654Z,22.39
2018-08-16T08:27:00.864Z,22.64
2018-08-16T08:29:29.583Z,22.71
